createdAt,value
2022-08-05T00:00:15.955Z,4.32
2022-08-05T00:02:43.858Z,3.88
2022-08-05T00:06:01.876Z,4.18
2022-08-05T00:08:04.556Z,4.07
2022-08-05T00:10:31.089Z,3.97
2022-08-05T00:12:57.491Z,4.35
2022-08-05T00:15:58.079Z,4.28
2022-08-05T00:18:21.672Z,4.45
2022-08-05T00:20:49.173Z,4.30
2022-08-05T00:23:15.608Z,4.43
2022-08-05T00:25:45.869Z,4.55
2022-08-05T00:28:12.957Z,4.55
2022-08-05T00:30:39.325Z,4.65
2022-08-05T00:33:07.825Z,4.45
2022-08-05T00:36:16.040Z,4.55
2022-08-05T00:38:40.855Z,4.22
2022-08-05T00:41:11.812Z,4.45
2022-08-05T00:43:46.582Z,4.40
2022-08-05T00:46:13.770Z,4.30
2022-08-05T00:48:51.411Z,4.47
2022-08-05T00:51:51.467Z,4.50
2022-08-05T00:54:05.005Z,4.55
2022-08-05T00:56:31.338Z,4.45
2022-08-05T00:58:57.757Z,4.30
2022-08-05T01:01:42.834Z,4.63
2022-08-05T01:04:14.265Z,4.55
2022-08-05T01:06:43.695Z,4.43
2022-08-05T01:09:14.273Z,4.65
2022-08-05T01:11:43.906Z,4.53
2022-08-05T01:14:33.592Z,4.45
2022-08-05T01:17:03.164Z,3.90
2022-08-05T01:19:56.188Z,4.70
2022-08-05T01:22:27.713Z,4.40
2022-08-05T01:25:02.595Z,4.47
2022-08-05T01:27:40.976Z,4.55
2022-08-05T01:30:17.813Z,4.85
2022-08-05T01:32:47.046Z,4.78
2022-08-05T01:35:50.657Z,4.75
2022-08-05T01:38:04.306Z,4.47
2022-08-05T01:40:31.601Z,4.72
2022-08-05T01:42:58.924Z,4.70
2022-08-05T01:45:26.465Z,5.13
2022-08-05T01:48:01.512Z,4.32
2022-08-05T01:50:50.881Z,4.65
2022-08-05T01:53:55.188Z,4.68
2022-08-05T01:56:05.899Z,5.10
2022-08-05T01:58:40.636Z,4.47
2022-08-05T02:01:13.060Z,4.70
2022-08-05T02:03:43.775Z,5.38
2022-08-05T02:06:33.294Z,4.75
2022-08-05T02:08:59.022Z,4.68
2022-08-05T02:11:33.635Z,4.70
2022-08-05T02:14:00.381Z,4.78
2022-08-05T02:16:32.757Z,4.60
2022-08-05T02:19:01.150Z,4.93
2022-08-05T02:21:38.057Z,4.97
2022-08-05T02:24:14.383Z,5.30
2022-08-05T02:26:53.838Z,5.57
2022-08-05T02:29:24.263Z,4.88
2022-08-05T02:32:09.561Z,4.43
2022-08-05T02:34:37.581Z,5.07
2022-08-05T02:37:09.423Z,5.13
2022-08-05T02:39:38.573Z,5.25
2022-08-05T02:42:08.251Z,5.10
2022-08-05T02:44:37.614Z,4.50
2022-08-05T02:47:05.723Z,5.38
2022-08-05T02:49:36.344Z,5.18
2022-08-05T02:52:05.270Z,4.88
2022-08-05T02:54:36.019Z,4.68
2022-08-05T02:57:05.122Z,5.20
2022-08-05T02:59:50.156Z,5.05
2022-08-05T03:02:19.623Z,5.00
2022-08-05T03:04:48.253Z,4.28
2022-08-05T03:07:40.587Z,5.25
2022-08-05T03:10:07.009Z,4.68
2022-08-05T03:12:34.526Z,5.22
2022-08-05T03:15:01.208Z,5.53
2022-08-05T03:17:28.323Z,5.30
2022-08-05T03:19:55.063Z,5.38
2022-08-05T03:22:32.116Z,5.10
2022-08-05T03:25:11.634Z,4.70
2022-08-05T03:28:00.231Z,5.10
2022-08-05T03:30:28.668Z,4.90
2022-08-05T03:33:00.973Z,5.07
2022-08-05T03:35:28.765Z,5.18
2022-08-05T03:37:58.460Z,5.22
2022-08-05T03:40:31.939Z,4.97
2022-08-05T03:42:58.982Z,4.80
2022-08-05T03:45:28.966Z,5.15
2022-08-05T03:47:57.143Z,4.97
2022-08-05T03:50:25.701Z,4.80
2022-08-05T03:55:34.207Z,4.90
2022-08-05T03:56:18.099Z,4.65
2022-08-05T03:58:55.224Z,5.20
2022-08-05T04:01:25.063Z,4.80
2022-08-05T04:04:09.049Z,4.78
2022-08-05T04:06:37.354Z,4.93
2022-08-05T04:09:05.894Z,4.85
2022-08-05T04:11:50.791Z,4.90
2022-08-05T04:14:19.299Z,5.13
2022-08-05T04:16:57.687Z,4.80
2022-08-05T04:19:24.497Z,5.40
2022-08-05T04:22:09.624Z,4.70
2022-08-05T04:24:38.018Z,4.72
2022-08-05T04:27:10.713Z,5.05
2022-08-05T04:29:37.249Z,5.07
2022-08-05T04:32:03.704Z,4.97
2022-08-05T04:34:32.420Z,4.43
2022-08-05T04:36:59.873Z,4.82
2022-08-05T04:39:27.574Z,3.83
2022-08-05T04:41:54.200Z,3.38
2022-08-05T04:44:30.324Z,4.00
2022-08-05T04:47:00.265Z,3.78
2022-08-05T04:50:01.977Z,3.60
2022-08-05T04:52:22.887Z,3.75
2022-08-05T04:54:49.462Z,3.67
2022-08-05T04:57:16.045Z,3.67
2022-08-05T04:59:42.431Z,3.58
2022-08-05T05:02:37.469Z,3.47
2022-08-05T05:05:03.105Z,3.47
2022-08-05T05:07:32.409Z,3.72
2022-08-05T05:10:05.289Z,3.50
2022-08-05T05:12:32.963Z,3.33
2022-08-05T05:14:59.312Z,3.80
2022-08-05T05:17:56.264Z,3.60
2022-08-05T05:20:22.748Z,3.35
2022-08-05T05:22:54.579Z,3.60
2022-08-05T05:25:20.962Z,3.40
2022-08-05T05:27:59.223Z,3.05
2022-08-05T05:30:31.397Z,3.35
2022-08-05T05:33:08.964Z,3.28
2022-08-05T05:35:43.119Z,3.05
2022-08-05T05:38:13.522Z,3.30
2022-08-05T05:40:48.313Z,3.35
2022-08-05T05:43:22.270Z,3.25
2022-08-05T05:46:05.481Z,3.25
2022-08-05T05:48:37.375Z,3.28
2022-08-05T05:51:15.053Z,2.97
2022-08-05T05:53:45.984Z,2.55
2022-08-05T05:56:26.246Z,2.95
2022-08-05T05:58:58.471Z,2.70
2022-08-05T06:01:37.578Z,2.80
2022-08-05T06:04:04.957Z,3.10
2022-08-05T06:06:33.185Z,2.90
2022-08-05T06:09:01.244Z,3.08
2022-08-05T06:11:29.528Z,2.60
2022-08-05T06:13:56.069Z,2.75
2022-08-05T06:16:29.971Z,2.47
2022-08-05T06:19:00.056Z,2.80
2022-08-05T06:21:36.948Z,2.42
2022-08-05T06:24:11.254Z,2.90
2022-08-05T06:26:38.804Z,2.42
2022-08-05T06:29:23.585Z,3.03
2022-08-05T06:31:51.684Z,2.80
2022-08-05T06:34:19.885Z,2.17
2022-08-05T06:36:58.165Z,2.80
2022-08-05T06:39:27.901Z,2.40
2022-08-05T06:41:55.949Z,2.40
2022-08-05T06:44:25.000Z,2.47
2022-08-05T06:46:52.409Z,2.33
2022-08-05T06:49:21.385Z,2.25
2022-08-05T06:52:07.281Z,2.50
2022-08-05T06:54:33.850Z,2.30
2022-08-05T06:57:57.165Z,2.40
2022-08-05T06:59:57.943Z,2.53
2022-08-05T07:02:24.589Z,2.85
2022-08-05T07:04:51.205Z,2.40
2022-08-05T07:07:24.021Z,2.53
2022-08-05T07:10:03.610Z,2.50
2022-08-05T07:13:02.492Z,2.15
2022-08-05T07:16:01.965Z,2.28
2022-08-05T07:18:31.864Z,2.83
2022-08-05T07:20:58.493Z,3.03
2022-08-05T07:23:31.273Z,2.58
2022-08-05T07:25:57.648Z,2.67
2022-08-05T07:28:25.200Z,2.45
2022-08-05T07:30:52.890Z,2.40
2022-08-05T07:33:37.168Z,2.92
2022-08-05T07:36:20.747Z,2.35
2022-08-05T07:38:49.083Z,1.88
2022-08-05T07:42:13.824Z,2.78
2022-08-05T07:44:05.060Z,5.88
2022-08-05T07:46:31.864Z,2.40
2022-08-05T07:49:05.425Z,2.90
2022-08-05T07:51:40.256Z,2.60
2022-08-05T07:54:15.517Z,2.53
2022-08-05T07:57:13.531Z,2.78
2022-08-05T07:59:38.243Z,2.65
2022-08-05T08:02:10.596Z,2.55
2022-08-05T08:04:42.810Z,2.83
2022-08-05T08:07:11.590Z,2.50
2022-08-05T08:09:38.301Z,2.80
2022-08-05T08:12:14.026Z,2.92
2022-08-05T08:14:46.853Z,2.85
2022-08-05T08:17:16.177Z,2.67
2022-08-05T08:20:22.150Z,2.97
2022-08-05T08:22:29.785Z,3.17
2022-08-05T08:24:56.528Z,3.30
2022-08-05T08:27:40.041Z,2.90
2022-08-05T08:30:27.662Z,3.22
2022-08-05T08:32:58.478Z,3.33
2022-08-05T08:35:29.248Z,3.05
2022-08-05T08:38:01.837Z,3.13
2022-08-05T08:40:28.747Z,3.45
2022-08-05T08:42:56.546Z,3.10
2022-08-05T08:45:27.101Z,3.35
2022-08-05T08:48:12.670Z,3.63
2022-08-05T08:51:03.284Z,3.70
2022-08-05T08:53:35.350Z,3.25
2022-08-05T08:56:05.825Z,3.22
2022-08-05T08:58:43.111Z,4.28
2022-08-05T09:01:15.983Z,3.42
2022-08-05T09:03:45.364Z,3.03
2022-08-05T09:06:14.690Z,3.42
2022-08-05T09:08:45.193Z,4.05
2022-08-05T09:11:13.904Z,3.67
2022-08-05T09:14:09.501Z,3.70
2022-08-05T09:16:28.443Z,3.72
2022-08-05T09:18:55.780Z,3.92
2022-08-05T09:22:22.941Z,3.33
2022-08-05T09:24:15.428Z,3.13
2022-08-05T09:26:43.656Z,3.75
2022-08-05T09:29:10.205Z,3.67
2022-08-05T09:32:42.204Z,3.70
2022-08-05T09:34:23.127Z,2.88
2022-08-05T09:36:56.132Z,3.28
2022-08-05T09:39:41.518Z,2.95
2022-08-05T09:42:13.544Z,3.47
2022-08-05T09:44:50.517Z,3.60
2022-08-05T09:47:20.550Z,3.38
2022-08-05T09:50:00.823Z,3.65
2022-08-05T09:52:35.726Z,3.22
2022-08-05T09:55:55.043Z,3.17
2022-08-05T09:57:54.752Z,2.80
2022-08-05T10:00:25.832Z,3.03
2022-08-05T10:02:54.674Z,3.30
2022-08-05T10:05:23.593Z,3.20
2022-08-05T10:08:35.319Z,2.88
2022-08-05T10:10:43.829Z,2.92
2022-08-05T10:13:10.231Z,2.80
2022-08-05T10:15:38.569Z,2.92
2022-08-05T10:18:07.737Z,3.08
2022-08-05T10:20:35.324Z,3.10
2022-08-05T10:23:02.251Z,3.00
2022-08-05T10:25:30.050Z,3.72
2022-08-05T10:28:13.167Z,3.00
2022-08-05T10:32:55.079Z,3.10
2022-08-05T10:33:34.231Z,3.20
2022-08-05T10:36:05.481Z,3.10
2022-08-05T10:38:33.403Z,3.00
2022-08-05T10:41:09.088Z,2.42
2022-08-05T10:43:57.355Z,2.72
2022-08-05T10:46:42.345Z,2.70
2022-08-05T10:49:10.425Z,2.70
2022-08-05T10:51:57.690Z,3.15
2022-08-05T10:54:46.930Z,2.40
2022-08-05T10:57:24.994Z,3.00
2022-08-05T11:00:18.156Z,2.28
2022-08-05T11:03:22.831Z,2.85
2022-08-05T11:06:04.015Z,2.60
2022-08-05T11:08:37.472Z,2.88
2022-08-05T11:11:24.301Z,2.72
2022-08-05T11:14:00.406Z,2.47
2022-08-05T11:16:47.772Z,2.65
2022-08-05T11:20:10.721Z,2.85
2022-08-05T11:22:42.642Z,2.67
2022-08-05T11:26:04.086Z,3.30
2022-08-05T11:28:16.912Z,2.90
2022-08-05T11:30:55.959Z,2.97
2022-08-05T11:33:47.834Z,2.50
2022-08-05T11:36:34.385Z,2.67
2022-08-05T11:39:03.571Z,2.20
2022-08-05T11:41:58.154Z,2.72
2022-08-05T11:44:40.780Z,2.67
2022-08-05T11:47:10.933Z,2.40
2022-08-05T11:49:42.808Z,2.83
2022-08-05T11:52:11.355Z,2.72
2022-08-05T11:54:40.349Z,2.28
2022-08-05T11:57:25.583Z,2.78
2022-08-05T11:59:54.844Z,2.92
2022-08-05T12:02:31.779Z,2.83
2022-08-05T12:05:01.089Z,2.50
2022-08-05T12:08:07.946Z,2.80
2022-08-05T12:10:20.832Z,2.92
2022-08-05T12:12:59.397Z,2.30
2022-08-05T12:15:33.252Z,2.55
2022-08-05T12:18:09.998Z,2.40
2022-08-05T12:20:38.710Z,2.80
2022-08-05T12:23:09.585Z,2.38
2022-08-05T12:25:51.993Z,2.35
2022-08-05T12:28:31.820Z,2.95
2022-08-05T12:30:58.404Z,2.72
2022-08-05T12:33:36.510Z,2.25
2022-08-05T12:36:08.544Z,2.30
2022-08-05T12:38:39.895Z,2.05
2022-08-05T12:41:12.504Z,2.40
2022-08-05T12:43:57.075Z,2.80
2022-08-05T12:46:29.122Z,2.22
2022-08-05T12:48:58.933Z,2.50
2022-08-05T12:52:10.309Z,2.47
2022-08-05T12:54:23.504Z,3.15
2022-08-05T12:56:54.123Z,2.33
2022-08-05T12:59:46.723Z,2.90
2022-08-05T13:02:10.112Z,2.95
2022-08-05T13:04:52.216Z,3.20
2022-08-05T13:07:54.698Z,2.38
2022-08-05T13:10:12.504Z,2.60
2022-08-05T13:12:42.668Z,2.35
2022-08-05T13:15:42.117Z,2.35
2022-08-05T13:18:18.781Z,2.33
2022-08-05T13:20:46.365Z,2.67
2022-08-05T13:23:12.693Z,2.60
2022-08-05T13:25:52.664Z,2.60
2022-08-05T13:28:26.369Z,2.65
2022-08-05T13:30:53.385Z,2.70
2022-08-05T13:34:21.944Z,2.97
2022-08-05T13:36:06.803Z,2.65
2022-08-05T13:38:36.241Z,2.83
2022-08-05T13:41:09.308Z,2.20
2022-08-05T13:43:45.689Z,2.55
2022-08-05T13:46:44.239Z,2.78
2022-08-05T13:49:10.291Z,2.22
2022-08-05T13:51:41.225Z,2.70
2022-08-05T13:54:11.795Z,2.13
2022-08-05T13:56:45.038Z,2.38
2022-08-05T13:59:24.186Z,2.78
2022-08-05T14:01:56.778Z,2.50
2022-08-05T14:04:49.858Z,2.78
2022-08-05T14:07:25.623Z,2.42
2022-08-05T14:10:05.029Z,2.33
2022-08-05T14:12:34.947Z,2.65
2022-08-05T14:15:01.567Z,2.70
2022-08-05T14:17:47.915Z,2.25
2022-08-05T14:20:17.482Z,2.92
2022-08-05T14:22:49.875Z,2.40
2022-08-05T14:25:19.137Z,2.63
2022-08-05T14:27:49.453Z,2.35
2022-08-05T14:30:20.846Z,2.67
2022-08-05T14:32:48.666Z,2.35
2022-08-05T14:35:15.008Z,2.55
2022-08-05T14:37:45.558Z,2.45
2022-08-05T14:40:16.777Z,2.35
2022-08-05T14:42:43.607Z,2.47
2022-08-05T14:45:10.170Z,2.72
2022-08-05T14:48:05.198Z,2.78
2022-08-05T14:50:23.180Z,2.58
2022-08-05T14:52:56.968Z,2.22
2022-08-05T14:55:25.147Z,2.60
2022-08-05T14:57:54.479Z,2.47
2022-08-05T15:00:28.136Z,2.58
2022-08-05T15:02:55.935Z,2.45
2022-08-05T15:05:22.548Z,2.40
2022-08-05T15:08:12.274Z,2.72
2022-08-05T15:10:43.453Z,2.72
2022-08-05T15:13:12.837Z,2.58
2022-08-05T15:15:56.003Z,2.50
2022-08-05T15:18:23.298Z,2.53
2022-08-05T15:20:49.682Z,2.90
2022-08-05T15:23:17.414Z,2.70
2022-08-05T15:25:53.873Z,3.00
2022-08-05T15:28:27.370Z,2.70
2022-08-05T15:30:54.354Z,2.88
2022-08-05T15:33:56.705Z,2.95
2022-08-05T15:36:16.689Z,2.70
2022-08-05T15:38:44.627Z,2.75
2022-08-05T15:41:23.210Z,2.55
2022-08-05T15:43:50.851Z,2.40
2022-08-05T15:46:19.069Z,2.60
2022-08-05T15:48:54.824Z,2.60
2022-08-05T15:52:13.789Z,2.67
2022-08-05T15:54:15.156Z,2.67
2022-08-05T15:56:42.217Z,2.75
2022-08-05T15:59:09.946Z,2.90
2022-08-05T16:01:53.246Z,2.85
2022-08-05T16:04:20.598Z,2.85
2022-08-05T16:06:52.293Z,2.40
2022-08-05T16:09:18.624Z,2.63
2022-08-05T16:11:52.854Z,2.42
2022-08-05T16:14:20.156Z,2.72
2022-08-05T16:16:47.229Z,2.30
2022-08-05T16:19:18.733Z,2.92
2022-08-05T16:21:58.659Z,2.47
2022-08-05T16:24:41.783Z,2.80
2022-08-05T16:27:15.758Z,2.60
2022-08-05T16:29:47.236Z,2.58
2022-08-05T16:32:17.304Z,2.90
2022-08-05T16:34:50.838Z,2.70
2022-08-05T16:38:02.322Z,2.90
2022-08-05T16:40:07.345Z,2.40
2022-08-05T16:42:39.964Z,2.63
2022-08-05T16:46:03.933Z,3.00
2022-08-05T16:47:54.410Z,2.65
2022-08-05T16:50:23.798Z,2.80
2022-08-05T16:52:50.136Z,2.60
2022-08-05T16:55:16.747Z,2.70
2022-08-05T16:57:59.877Z,2.80
2022-08-05T17:00:34.467Z,2.20
2022-08-05T17:03:09.260Z,2.97
2022-08-05T17:05:50.195Z,2.90
2022-08-05T17:08:36.134Z,2.53
2022-08-05T17:11:08.917Z,2.40
2022-08-05T17:13:42.132Z,2.63
2022-08-05T17:16:27.874Z,2.85
2022-08-05T17:18:55.092Z,2.80
2022-08-05T17:21:23.497Z,2.70
2022-08-05T17:24:04.828Z,2.88
2022-08-05T17:26:33.555Z,2.67
2022-08-05T17:28:59.934Z,2.80
2022-08-05T17:31:56.548Z,2.33
2022-08-05T17:34:20.431Z,2.67
2022-08-05T17:36:56.693Z,2.65
2022-08-05T17:39:23.701Z,3.35
2022-08-05T17:42:17.519Z,3.65
2022-08-05T17:44:37.438Z,3.15
2022-08-05T17:47:03.881Z,3.15
2022-08-05T17:49:51.543Z,3.15
2022-08-05T17:52:16.714Z,3.17
2022-08-05T17:54:43.151Z,3.63
2022-08-05T17:57:12.021Z,3.58
2022-08-05T17:59:40.083Z,3.50
2022-08-05T18:02:10.758Z,3.75
2022-08-05T18:04:51.456Z,3.63
2022-08-05T18:07:20.033Z,3.33
2022-08-05T18:09:59.415Z,3.53
2022-08-05T18:12:27.227Z,3.80
2022-08-05T18:14:54.754Z,3.53
2022-08-05T18:18:00.632Z,3.58
2022-08-05T18:20:07.905Z,3.17
2022-08-05T18:22:54.668Z,3.10
2022-08-05T18:25:23.656Z,3.47
2022-08-05T18:27:52.569Z,3.40
2022-08-05T18:30:19.423Z,3.50
2022-08-05T18:32:53.398Z,2.90
2022-08-05T18:35:20.430Z,3.35
2022-08-05T18:38:07.498Z,3.22
2022-08-05T18:41:53.250Z,3.75
2022-08-05T18:43:21.459Z,3.42
2022-08-05T18:45:49.518Z,3.80
2022-08-05T18:48:30.885Z,3.47
2022-08-05T18:52:04.846Z,3.72
2022-08-05T18:54:05.413Z,3.17
2022-08-05T18:56:31.949Z,3.50
2022-08-05T18:59:01.108Z,3.80
2022-08-05T19:01:33.250Z,3.95
2022-08-05T19:04:13.664Z,4.10
2022-08-05T19:06:50.680Z,3.80
2022-08-05T19:09:17.071Z,3.78
2022-08-05T19:11:59.547Z,3.75
2022-08-05T19:14:38.079Z,3.13
2022-08-05T19:17:15.099Z,3.83
2022-08-05T19:19:44.138Z,3.72
2022-08-05T19:22:13.698Z,3.22
2022-08-05T19:24:55.905Z,2.95
2022-08-05T19:27:23.428Z,2.88
2022-08-05T19:29:50.078Z,3.03
2022-08-05T19:32:17.693Z,3.10
2022-08-05T19:34:55.300Z,3.10
2022-08-05T19:37:30.073Z,3.17
2022-08-05T19:40:10.734Z,4.47
2022-08-05T19:42:38.701Z,4.75
2022-08-05T19:45:06.506Z,5.20
2022-08-05T19:47:34.049Z,5.35
2022-08-05T19:50:01.042Z,5.38
2022-08-05T19:52:31.612Z,6.32
2022-08-05T19:55:00.602Z,9.43
2022-08-05T19:58:02.772Z,11.73
2022-08-05T20:00:20.656Z,9.68
2022-08-05T20:02:47.360Z,9.50
2022-08-05T20:05:16.549Z,11.55
2022-08-05T20:07:55.005Z,11.35
2022-08-05T20:10:25.053Z,11.85
2022-08-05T20:12:51.711Z,11.82
2022-08-05T20:15:48.318Z,11.20
2022-08-05T20:18:10.616Z,13.65
2022-08-05T20:20:55.058Z,14.57
2022-08-05T20:23:22.291Z,13.25
2022-08-05T20:25:48.772Z,13.63
2022-08-05T20:28:18.499Z,16.35
2022-08-05T20:30:44.959Z,12.32
2022-08-05T20:33:11.531Z,20.55
2022-08-05T20:35:45.747Z,21.17
2022-08-05T20:38:14.451Z,22.05
2022-08-05T20:40:53.814Z,20.02
2022-08-05T20:43:57.405Z,19.90
2022-08-05T20:46:10.154Z,23.50
2022-08-05T20:48:39.525Z,24.13
2022-08-05T20:51:08.775Z,19.02
2022-08-05T20:53:36.885Z,13.48
2022-08-05T20:56:08.677Z,9.23
2022-08-05T20:58:35.730Z,9.32
2022-08-05T21:01:03.963Z,6.97
2022-08-05T21:03:34.220Z,6.28
2022-08-05T21:06:01.629Z,6.60
2022-08-05T21:08:35.959Z,7.07
2022-08-05T21:11:11.618Z,6.28
2022-08-05T21:13:48.174Z,5.55
2022-08-05T21:16:29.818Z,6.25
2022-08-05T21:18:57.152Z,6.38
2022-08-05T21:21:26.687Z,8.18
2022-08-05T21:24:07.225Z,7.82
2022-08-05T21:26:33.733Z,5.88
2022-08-05T21:29:03.739Z,8.30
2022-08-05T21:31:41.560Z,10.20
2022-08-05T21:34:08.319Z,6.82
2022-08-05T21:36:36.848Z,6.15
2022-08-05T21:39:03.373Z,6.45
2022-08-05T21:41:34.286Z,6.82
2022-08-05T21:44:04.083Z,6.70
2022-08-05T21:46:34.936Z,7.15
2022-08-05T21:49:02.211Z,5.35
2022-08-05T21:52:22.496Z,5.22
2022-08-05T21:54:17.617Z,6.53
2022-08-05T21:57:04.872Z,7.45
2022-08-05T22:00:03.065Z,8.00
2022-08-05T22:02:27.669Z,8.60
2022-08-05T22:04:58.114Z,8.13
2022-08-05T22:07:40.521Z,7.80
2022-08-05T22:10:11.776Z,7.45
2022-08-05T22:12:40.280Z,8.82
2022-08-05T22:15:16.544Z,11.05
2022-08-05T22:17:56.488Z,8.75
2022-08-05T22:20:26.756Z,13.32
2022-08-05T22:23:17.121Z,11.25
2022-08-05T22:26:09.565Z,11.18
2022-08-05T22:28:38.065Z,8.43
2022-08-05T22:31:05.763Z,9.45
2022-08-05T22:33:57.282Z,8.57
2022-08-05T22:36:18.854Z,10.75
2022-08-05T22:38:48.554Z,11.27
2022-08-05T22:41:15.911Z,9.10
2022-08-05T22:44:02.321Z,10.68
2022-08-05T22:46:28.825Z,11.25
2022-08-05T22:48:56.579Z,13.60
2022-08-05T22:52:03.071Z,12.50
2022-08-05T22:54:09.400Z,11.52
2022-08-05T22:56:35.848Z,11.30
2022-08-05T22:59:45.029Z,18.27
2022-08-05T23:02:05.743Z,10.48
2022-08-05T23:04:34.155Z,18.23
2022-08-05T23:07:00.736Z,12.77
2022-08-05T23:09:57.166Z,12.40
2022-08-05T23:12:13.627Z,10.80
2022-08-05T23:14:40.059Z,9.27
2022-08-05T23:17:34.953Z,11.68
2022-08-05T23:20:05.560Z,7.35
2022-08-05T23:22:37.089Z,8.43
2022-08-05T23:25:04.000Z,8.13
2022-08-05T23:27:42.406Z,6.22
2022-08-05T23:30:20.421Z,6.57
2022-08-05T23:32:53.894Z,5.05
2022-08-05T23:35:20.454Z,5.28
2022-08-05T23:37:47.976Z,5.20
2022-08-05T23:40:14.464Z,4.53
2022-08-05T23:42:40.943Z,5.13
2022-08-05T23:45:15.853Z,5.03
2022-08-05T23:47:47.524Z,5.30
2022-08-05T23:50:14.579Z,8.35
2022-08-05T23:52:50.108Z,4.85
2022-08-05T23:55:18.941Z,5.95
2022-08-05T23:57:48.915Z,5.28
